Jasper, Oregon
Current Conditions -  °F | °C
As of 11:54 AM on Monday 26 Jan 2015 (Local Time) from KEUG Reporting Station
Broken Clouds Broken Clouds  
Wind Chill: 51°   Ceiling: 25000
Heat Index: 51°   Visibility: 10mi
Dew Point: 47°   Wind: 0mph
Humidity: 86%   Direction: NA
Pressure: 30.03"   Gusts: NA
Location:  43.9537°N, 122.621°W
Report Text: KEUG 261954Z 00000KT 10SM FEW001 BKN250 11/08 A3003 RMK AO2 SLP169 FG FEW001 T01060083
Loading
Personal Weather Stations






























Interactive Weather Map New forecast layout! Learn more

10-Day Weather Forecast

Advertisements
Track Severe Weather on mobile